createdAt,value
2019-02-24T00:00:13.375Z,0.86
2019-02-24T00:01:20.870Z,0.84
2019-02-24T00:02:24.553Z,0.87
2019-02-24T00:03:27.988Z,0.85
2019-02-24T00:04:31.432Z,0.84
2019-02-24T00:05:34.856Z,0.91
2019-02-24T00:06:38.288Z,0.89
2019-02-24T00:07:41.733Z,0.82
2019-02-24T00:08:45.173Z,0.91
2019-02-24T00:09:48.666Z,0.92
2019-02-24T00:10:52.090Z,0.86
2019-02-24T00:11:55.527Z,0.85
2019-02-24T00:12:58.964Z,0.82
2019-02-24T00:14:02.548Z,0.80
2019-02-24T00:15:07.873Z,0.66
2019-02-24T00:16:11.320Z,0.61
2019-02-24T00:17:14.754Z,0.59
2019-02-24T00:18:18.266Z,0.65
2019-02-24T00:19:21.713Z,0.62
2019-02-24T00:20:25.145Z,0.53
2019-02-24T00:21:28.611Z,0.58
2019-02-24T00:22:31.993Z,0.54
2019-02-24T00:23:35.435Z,0.53
2019-02-24T00:24:38.879Z,0.65
2019-02-24T00:25:42.400Z,0.61
2019-02-24T00:26:45.910Z,0.64
2019-02-24T00:27:49.335Z,0.63
2019-02-24T00:28:52.790Z,0.69
2019-02-24T00:29:56.239Z,0.65
2019-02-24T00:30:59.656Z,0.65
2019-02-24T00:32:03.087Z,0.57
2019-02-24T00:33:06.591Z,0.48
2019-02-24T00:34:10.031Z,0.58
2019-02-24T00:35:13.474Z,0.60
2019-02-24T00:36:16.912Z,0.55
2019-02-24T00:37:20.325Z,0.50
2019-02-24T00:38:23.888Z,0.34
2019-02-24T00:39:27.329Z,0.32
2019-02-24T00:40:30.757Z,0.32
2019-02-24T00:41:34.175Z,0.29
2019-02-24T00:42:37.737Z,0.35
2019-02-24T00:43:41.241Z,0.42
2019-02-24T00:44:44.672Z,0.41
2019-02-24T00:45:48.109Z,0.41
2019-02-24T00:46:51.670Z,0.46
2019-02-24T00:47:55.089Z,0.48
2019-02-24T00:48:58.529Z,0.47
2019-02-24T00:50:01.974Z,0.42
2019-02-24T00:51:05.460Z,0.41
2019-02-24T00:52:08.907Z,0.42
2019-02-24T00:53:12.430Z,0.39
2019-02-24T00:54:15.864Z,0.38
2019-02-24T00:55:19.395Z,0.38
2019-02-24T00:56:22.983Z,0.42
2019-02-24T00:57:26.419Z,0.45
2019-02-24T00:58:29.854Z,0.50
2019-02-24T00:59:33.264Z,0.54
2019-02-24T01:00:36.797Z,0.63
2019-02-24T01:01:40.334Z,0.60
2019-02-24T01:02:43.919Z,0.63
2019-02-24T01:03:47.414Z,0.55
2019-02-24T01:04:50.907Z,0.55
2019-02-24T01:05:54.357Z,0.53
2019-02-24T01:06:57.784Z,0.56
2019-02-24T01:08:01.216Z,0.56
2019-02-24T01:09:06.358Z,0.58
2019-02-24T01:10:10.146Z,0.55
2019-02-24T01:11:13.583Z,0.38
2019-02-24T01:12:17.093Z,0.38
2019-02-24T01:13:20.529Z,0.51
2019-02-24T01:14:23.977Z,0.59
2019-02-24T01:15:27.500Z,0.61
2019-02-24T01:16:31.001Z,0.61
2019-02-24T01:17:34.438Z,0.59
2019-02-24T01:18:38.306Z,0.52
2019-02-24T01:19:41.824Z,0.46
2019-02-24T01:20:45.247Z,0.46
2019-02-24T01:21:48.779Z,0.47
2019-02-24T01:22:52.303Z,0.43
2019-02-24T01:23:55.734Z,0.35
2019-02-24T01:24:59.164Z,0.30
2019-02-24T01:26:02.606Z,0.21
2019-02-24T01:27:06.034Z,0.25
2019-02-24T01:28:09.498Z,0.24
2019-02-24T01:29:12.933Z,0.21
2019-02-24T01:30:16.468Z,0.20
2019-02-24T01:31:19.997Z,0.14
2019-02-24T01:32:23.426Z,0.19
2019-02-24T01:33:26.862Z,0.24
2019-02-24T01:34:30.306Z,0.31
2019-02-24T01:35:33.737Z,0.27
2019-02-24T01:36:37.173Z,0.36
2019-02-24T01:37:40.637Z,0.41
2019-02-24T01:38:44.058Z,0.30
2019-02-24T01:39:47.544Z,0.21
2019-02-24T01:40:50.964Z,0.16
2019-02-24T01:41:54.388Z,0.17
2019-02-24T01:42:57.914Z,0.21
2019-02-24T01:44:01.344Z,0.27
2019-02-24T01:45:06.322Z,0.25
2019-02-24T01:46:09.754Z,0.22
2019-02-24T01:47:13.188Z,0.18
2019-02-24T01:48:16.640Z,0.10
2019-02-24T01:49:20.122Z,0.06
2019-02-24T01:50:23.558Z,0.05
2019-02-24T01:51:26.984Z,0.11
2019-02-24T01:52:30.580Z,0.11
2019-02-24T01:53:34.028Z,0.11
2019-02-24T01:54:37.451Z,0.08
2019-02-24T01:55:40.966Z,0.07
2019-02-24T01:56:44.392Z,0.03
2019-02-24T01:57:47.879Z,0.09
2019-02-24T01:58:51.335Z,0.11
2019-02-24T01:59:54.896Z,0.02
2019-02-24T02:00:58.405Z,0.00
2019-02-24T02:02:01.850Z,0.04
2019-02-24T02:03:05.449Z,-0.06
2019-02-24T02:04:08.899Z,-0.08
2019-02-24T02:05:12.473Z,-0.03
2019-02-24T02:06:15.924Z,-0.07
2019-02-24T02:07:19.497Z,-0.08
2019-02-24T02:08:22.925Z,-0.12
2019-02-24T02:09:26.357Z,-0.09
2019-02-24T02:10:29.838Z,-0.07
2019-02-24T02:11:33.291Z,-0.04
2019-02-24T02:12:36.680Z,0.08
2019-02-24T02:13:40.106Z,0.23
2019-02-24T02:14:43.562Z,0.17
2019-02-24T02:15:47.006Z,0.17
2019-02-24T02:16:50.429Z,0.07
2019-02-24T02:17:53.856Z,0.00
2019-02-24T02:18:57.293Z,0.03
2019-02-24T02:20:00.822Z,0.06
2019-02-24T02:21:04.288Z,0.12
2019-02-24T02:22:07.784Z,0.07
2019-02-24T02:23:11.284Z,-0.03
2019-02-24T02:24:14.730Z,-0.05
2019-02-24T02:25:18.169Z,-0.03
2019-02-24T02:26:21.667Z,-0.07
2019-02-24T02:27:25.105Z,0.01
2019-02-24T02:28:28.567Z,0.15
2019-02-24T02:29:31.992Z,0.22
2019-02-24T02:30:35.589Z,0.23
2019-02-24T02:31:39.000Z,0.23
2019-02-24T02:32:42.711Z,0.21
2019-02-24T02:33:46.152Z,0.19
2019-02-24T02:34:49.587Z,0.17
2019-02-24T02:35:53.025Z,0.16
2019-02-24T02:36:56.512Z,0.14
2019-02-24T02:37:59.952Z,0.06
2019-02-24T02:39:04.320Z,0.05
2019-02-24T02:40:08.616Z,0.10
2019-02-24T02:41:12.129Z,0.07
2019-02-24T02:42:15.564Z,0.14
2019-02-24T02:43:19.068Z,0.14
2019-02-24T02:44:22.493Z,0.11
2019-02-24T02:45:25.973Z,0.00
2019-02-24T02:46:29.429Z,-0.05
2019-02-24T02:47:32.876Z,0.02
2019-02-24T02:48:36.297Z,0.04
2019-02-24T02:49:39.725Z,0.11
2019-02-24T02:50:43.165Z,0.13
2019-02-24T02:51:46.691Z,0.09
2019-02-24T02:52:50.136Z,0.16
2019-02-24T02:53:53.562Z,0.18
2019-02-24T02:54:57.059Z,0.14
2019-02-24T02:56:00.488Z,0.18
2019-02-24T02:57:03.933Z,0.08
2019-02-24T02:58:07.449Z,0.06
2019-02-24T02:59:10.870Z,0.09
2019-02-24T03:00:34.549Z,0.06
2019-02-24T03:01:38.047Z,0.10
2019-02-24T03:02:41.493Z,0.10
2019-02-24T03:03:44.928Z,-0.06
2019-02-24T03:04:48.360Z,-0.01
2019-02-24T03:06:01.933Z,0.05
2019-02-24T03:07:07.002Z,0.14
2019-02-24T03:08:12.157Z,0.18
2019-02-24T03:09:15.644Z,0.20
2019-02-24T03:10:19.065Z,0.27
2019-02-24T03:11:22.540Z,0.29
2019-02-24T03:12:26.043Z,0.31
2019-02-24T03:13:29.499Z,0.33
2019-02-24T03:14:32.990Z,0.27
2019-02-24T03:15:36.486Z,0.17
2019-02-24T03:16:39.927Z,0.05
2019-02-24T03:17:43.405Z,-0.09
2019-02-24T03:18:46.874Z,-0.07
2019-02-24T03:19:50.364Z,-0.11
2019-02-24T03:20:53.795Z,-0.20
2019-02-24T03:21:57.390Z,-0.26
2019-02-24T03:23:00.818Z,-0.26
2019-02-24T03:24:04.267Z,-0.27
2019-02-24T03:25:08.045Z,-0.24
2019-02-24T03:26:11.475Z,-0.24
2019-02-24T03:27:14.953Z,-0.33
2019-02-24T03:28:18.377Z,-0.39
2019-02-24T03:29:21.817Z,-0.40
2019-02-24T03:30:25.263Z,-0.30
2019-02-24T03:31:28.965Z,-0.25
2019-02-24T03:32:32.418Z,-0.22
2019-02-24T03:33:35.874Z,-0.27
2019-02-24T03:34:39.296Z,-0.35
2019-02-24T03:35:42.748Z,-0.36
2019-02-24T03:36:46.158Z,-0.32
2019-02-24T03:37:49.659Z,-0.33
2019-02-24T03:38:53.113Z,-0.18
2019-02-24T03:39:56.580Z,-0.08
2019-02-24T03:41:00.020Z,-0.09
2019-02-24T03:42:03.582Z,-0.17
2019-02-24T03:43:07.047Z,-0.22
2019-02-24T03:44:10.514Z,-0.28
2019-02-24T03:45:14.043Z,-0.34
2019-02-24T03:46:17.474Z,-0.36
2019-02-24T03:47:21.041Z,-0.32
2019-02-24T03:48:24.474Z,-0.33
2019-02-24T03:49:27.997Z,-0.36
2019-02-24T03:50:31.462Z,-0.40
2019-02-24T03:51:34.889Z,-0.47
2019-02-24T03:52:38.465Z,-0.46
2019-02-24T03:53:41.951Z,-0.42
2019-02-24T03:54:45.556Z,-0.45
2019-02-24T03:55:49.129Z,-0.41
2019-02-24T03:56:52.645Z,-0.44
2019-02-24T03:57:56.297Z,-0.49
2019-02-24T03:58:59.972Z,-0.42
2019-02-24T04:00:03.865Z,-0.33
2019-02-24T04:01:07.319Z,-0.43
2019-02-24T04:02:10.894Z,-0.39
2019-02-24T04:03:14.486Z,-0.35
2019-02-24T04:04:18.080Z,-0.33
2019-02-24T04:05:21.667Z,-0.37
2019-02-24T04:06:25.170Z,-0.35
2019-02-24T04:07:28.590Z,-0.44
2019-02-24T04:08:32.028Z,-0.49
2019-02-24T04:09:35.521Z,-0.53
2019-02-24T04:10:38.982Z,-0.60
2019-02-24T04:11:42.491Z,-0.59
2019-02-24T04:12:45.987Z,-0.61
2019-02-24T04:13:49.487Z,-0.55
2019-02-24T04:14:52.907Z,-0.45
2019-02-24T04:15:56.371Z,-0.41
2019-02-24T04:16:59.796Z,-0.47
2019-02-24T04:18:03.228Z,-0.41
2019-02-24T04:19:06.713Z,-0.51
2019-02-24T04:20:10.278Z,-0.47
2019-02-24T04:21:13.730Z,-0.43
2019-02-24T04:22:17.167Z,-0.42
2019-02-24T04:23:20.596Z,-0.39
2019-02-24T04:24:24.040Z,-0.44
2019-02-24T04:25:27.457Z,-0.49
2019-02-24T04:26:31.244Z,-0.63
2019-02-24T04:27:34.669Z,-0.57
2019-02-24T04:28:38.097Z,-0.63
2019-02-24T04:29:41.522Z,-0.57
2019-02-24T04:30:44.939Z,-0.52
2019-02-24T04:31:48.405Z,-0.44
2019-02-24T04:32:51.843Z,-0.34
2019-02-24T04:33:55.279Z,-0.14
2019-02-24T04:34:58.709Z,-0.08
2019-02-24T04:36:02.136Z,-0.21
2019-02-24T04:37:05.616Z,-0.31
2019-02-24T04:38:09.117Z,-0.46
2019-02-24T04:39:12.556Z,-0.47
2019-02-24T04:40:15.983Z,-0.48
2019-02-24T04:41:19.417Z,-0.49
2019-02-24T04:42:22.870Z,-0.48
2019-02-24T04:43:26.294Z,-0.45
2019-02-24T04:44:29.728Z,-0.44
2019-02-24T04:45:33.157Z,-0.53
2019-02-24T04:46:36.762Z,-0.51
2019-02-24T04:47:40.213Z,-0.59
2019-02-24T04:48:43.640Z,-0.58
2019-02-24T04:49:47.063Z,-0.56
2019-02-24T04:50:50.494Z,-0.58
2019-02-24T04:51:53.986Z,-0.65
2019-02-24T04:52:57.430Z,-0.60
2019-02-24T04:54:00.854Z,-0.63
2019-02-24T04:55:05.116Z,-0.65
2019-02-24T04:56:08.542Z,-0.69
2019-02-24T04:57:11.989Z,-0.64
2019-02-24T04:58:15.426Z,-0.64
2019-02-24T04:59:18.877Z,-0.57
2019-02-24T05:00:22.307Z,-0.53
2019-02-24T05:01:25.744Z,-0.46
2019-02-24T05:02:29.185Z,-0.63
2019-02-24T05:03:32.633Z,-0.59
2019-02-24T05:04:36.078Z,-0.52
2019-02-24T05:05:39.511Z,-0.57
2019-02-24T05:06:42.939Z,-0.59
2019-02-24T05:07:46.385Z,-0.64
2019-02-24T05:08:49.898Z,-0.63
2019-02-24T05:09:53.356Z,-0.73
2019-02-24T05:10:56.789Z,-0.82
2019-02-24T05:12:00.231Z,-0.86
2019-02-24T05:13:03.669Z,-0.84
2019-02-24T05:14:07.181Z,-0.84
2019-02-24T05:15:10.691Z,-0.83
2019-02-24T05:16:14.131Z,-0.86
2019-02-24T05:17:17.557Z,-0.99
2019-02-24T05:18:21.002Z,-0.95
2019-02-24T05:19:24.469Z,-0.85
2019-02-24T05:20:27.901Z,-0.86
2019-02-24T05:21:31.467Z,-0.84
2019-02-24T05:22:35.003Z,-0.88
2019-02-24T05:23:38.401Z,-0.83
2019-02-24T05:24:41.871Z,-0.83
2019-02-24T05:25:45.300Z,-0.88
2019-02-24T05:26:48.738Z,-0.88
2019-02-24T05:27:52.171Z,-0.92
2019-02-24T05:28:55.669Z,-1.01
2019-02-24T05:29:59.190Z,-1.05
2019-02-24T05:31:02.734Z,-1.03
2019-02-24T05:32:06.172Z,-1.00
2019-02-24T05:33:09.603Z,-1.05
2019-02-24T05:34:13.048Z,-1.04
2019-02-24T05:35:16.504Z,-1.02
2019-02-24T05:36:19.963Z,-0.95
2019-02-24T05:37:23.401Z,-0.91
2019-02-24T05:38:26.826Z,-0.86
2019-02-24T05:39:30.249Z,-0.76
2019-02-24T05:40:33.744Z,-0.78
2019-02-24T05:41:37.204Z,-0.88
2019-02-24T05:42:42.502Z,-0.91
2019-02-24T05:43:45.791Z,-0.88
2019-02-24T05:44:49.240Z,-0.76
2019-02-24T05:45:52.763Z,-0.71
2019-02-24T05:46:56.220Z,-0.74
2019-02-24T05:47:59.676Z,-0.79
2019-02-24T05:49:03.120Z,-0.81
2019-02-24T05:50:07.088Z,-0.85
2019-02-24T05:51:10.611Z,-0.89
2019-02-24T05:52:14.067Z,-0.85
2019-02-24T05:53:17.493Z,-0.84
2019-02-24T05:54:20.936Z,-0.87
2019-02-24T05:55:24.368Z,-0.84
2019-02-24T05:56:27.813Z,-0.90
2019-02-24T05:57:31.269Z,-0.92
2019-02-24T05:58:34.692Z,-0.95
2019-02-24T05:59:38.121Z,-1.02
2019-02-24T06:00:41.566Z,-1.03
2019-02-24T06:01:45.028Z,-0.97
2019-02-24T06:02:48.521Z,-0.82
2019-02-24T06:03:52.030Z,-0.83
2019-02-24T06:04:55.460Z,-0.94
2019-02-24T06:05:58.893Z,-0.98
2019-02-24T06:07:02.347Z,-0.98
2019-02-24T06:08:05.785Z,-0.94
2019-02-24T06:09:09.210Z,-0.87
2019-02-24T06:10:12.647Z,-0.86
2019-02-24T06:11:16.074Z,-0.88
2019-02-24T06:12:19.521Z,-0.90
2019-02-24T06:13:22.949Z,-0.94
2019-02-24T06:14:26.393Z,-0.87
2019-02-24T06:15:29.899Z,-0.74
2019-02-24T06:16:33.331Z,-0.68
2019-02-24T06:17:36.775Z,-0.61
2019-02-24T06:18:40.229Z,-0.57
2019-02-24T06:19:43.655Z,-0.57
2019-02-24T06:20:47.086Z,-0.57
2019-02-24T06:21:50.528Z,-0.59
2019-02-24T06:22:53.978Z,-0.58
2019-02-24T06:23:57.505Z,-0.68
2019-02-24T06:25:00.938Z,-0.66
2019-02-24T06:26:04.455Z,-0.55
2019-02-24T06:27:07.894Z,-0.54
2019-02-24T06:28:11.369Z,-0.54
2019-02-24T06:29:14.834Z,-0.48
2019-02-24T06:30:18.257Z,-0.45
2019-02-24T06:31:21.685Z,-0.40
2019-02-24T06:32:25.128Z,-0.45
2019-02-24T06:33:28.574Z,-0.47
2019-02-24T06:34:32.011Z,-0.40
2019-02-24T06:35:36.053Z,-0.38
2019-02-24T06:36:39.516Z,-0.43
2019-02-24T06:37:43.004Z,-0.46
2019-02-24T06:38:46.454Z,-0.40
2019-02-24T06:39:49.893Z,-0.42
2019-02-24T06:40:53.411Z,-0.41
2019-02-24T06:41:56.829Z,-0.41
2019-02-24T06:43:00.271Z,-0.38
2019-02-24T06:44:04.139Z,-0.39
2019-02-24T06:45:09.190Z,-0.48
2019-02-24T06:46:12.802Z,-0.60
2019-02-24T06:47:16.413Z,-0.61
2019-02-24T06:48:19.905Z,-0.65
2019-02-24T06:49:23.374Z,-0.69
2019-02-24T06:50:35.082Z,-0.73
2019-02-24T06:51:34.116Z,-0.72
2019-02-24T06:52:37.742Z,-0.73
2019-02-24T06:53:41.161Z,-0.72
2019-02-24T06:54:44.743Z,-0.66
2019-02-24T06:55:48.313Z,-0.64
2019-02-24T06:56:51.822Z,-0.64
2019-02-24T06:57:55.308Z,-0.66
2019-02-24T06:58:58.748Z,-0.64
2019-02-24T07:00:02.321Z,-0.61
2019-02-24T07:01:05.752Z,-0.57
2019-02-24T07:02:09.303Z,-0.55
2019-02-24T07:03:12.845Z,-0.50
2019-02-24T07:04:16.271Z,-0.43
2019-02-24T07:05:19.724Z,-0.38
2019-02-24T07:06:23.219Z,-0.40
2019-02-24T07:07:26.786Z,-0.42
2019-02-24T07:08:30.251Z,-0.45
2019-02-24T07:09:33.707Z,-0.45
2019-02-24T07:10:37.135Z,-0.39
2019-02-24T07:11:40.570Z,-0.33
2019-02-24T07:12:44.086Z,-0.28
2019-02-24T07:13:47.566Z,-0.23
2019-02-24T07:14:51.012Z,-0.29
2019-02-24T07:15:54.544Z,-0.38
2019-02-24T07:16:58.082Z,-0.44
2019-02-24T07:18:01.683Z,-0.39
2019-02-24T07:19:05.185Z,-0.41
2019-02-24T07:20:08.753Z,-0.36
2019-02-24T07:21:12.280Z,-0.39
2019-02-24T07:22:15.990Z,-0.35
2019-02-24T07:23:19.520Z,-0.27
2019-02-24T07:24:22.950Z,-0.22
2019-02-24T07:25:26.529Z,-0.29
2019-02-24T07:26:30.098Z,-0.31
2019-02-24T07:27:33.521Z,-0.44
2019-02-24T07:28:37.080Z,-0.39
2019-02-24T07:29:40.677Z,-0.30
2019-02-24T07:30:44.155Z,-0.20
2019-02-24T07:31:47.731Z,-0.22
2019-02-24T07:32:51.140Z,-0.17
2019-02-24T07:33:54.649Z,-0.09
2019-02-24T07:34:58.153Z,-0.18
2019-02-24T07:36:01.756Z,-0.17
2019-02-24T07:37:12.742Z,-0.08
2019-02-24T07:38:10.589Z,-0.10
2019-02-24T07:39:14.041Z,-0.20
2019-02-24T07:40:17.644Z,-0.23
2019-02-24T07:41:21.098Z,-0.19
2019-02-24T07:42:24.684Z,-0.17
2019-02-24T07:43:28.156Z,-0.11
2019-02-24T07:44:31.642Z,-0.06
2019-02-24T07:45:35.159Z,0.00
2019-02-24T07:46:38.779Z,0.01
2019-02-24T07:47:42.259Z,0.05
2019-02-24T07:48:47.595Z,0.04
2019-02-24T07:49:51.384Z,0.06
2019-02-24T07:50:55.098Z,0.10
2019-02-24T07:51:58.587Z,0.14
2019-02-24T07:53:02.104Z,0.16
2019-02-24T07:54:05.527Z,0.12
2019-02-24T07:55:08.964Z,0.20
2019-02-24T07:56:12.389Z,0.28
2019-02-24T07:57:15.907Z,0.35
2019-02-24T07:58:19.348Z,0.35
2019-02-24T07:59:22.866Z,0.31
2019-02-24T08:00:32.254Z,0.35
2019-02-24T08:01:31.504Z,0.35
2019-02-24T08:02:34.928Z,0.35
2019-02-24T08:03:38.372Z,0.40
2019-02-24T08:04:41.836Z,0.44
2019-02-24T08:05:45.261Z,0.55
2019-02-24T08:06:48.706Z,0.60
2019-02-24T08:07:52.129Z,0.57
2019-02-24T08:08:55.588Z,0.60
2019-02-24T08:09:59.033Z,0.61
2019-02-24T08:11:02.430Z,0.66
2019-02-24T08:12:05.996Z,0.72
2019-02-24T08:13:09.440Z,0.71
2019-02-24T08:14:12.889Z,0.73
2019-02-24T08:15:16.453Z,0.80
2019-02-24T08:16:19.877Z,0.83
2019-02-24T08:17:23.318Z,0.83
2019-02-24T08:18:26.808Z,0.82
2019-02-24T08:19:30.278Z,0.78
2019-02-24T08:20:33.697Z,0.76
2019-02-24T08:21:37.278Z,0.81
2019-02-24T08:22:40.693Z,0.82
2019-02-24T08:23:44.204Z,0.84
2019-02-24T08:24:47.739Z,0.86
2019-02-24T08:25:51.138Z,0.86
2019-02-24T08:26:54.712Z,0.84
2019-02-24T08:27:58.156Z,0.82
2019-02-24T08:29:01.585Z,0.86
2019-02-24T08:30:10.860Z,0.90
2019-02-24T08:31:14.307Z,0.94
2019-02-24T08:32:17.745Z,0.89
2019-02-24T08:33:21.183Z,0.90
2019-02-24T08:34:24.605Z,0.96
2019-02-24T08:35:28.066Z,0.99
2019-02-24T08:36:31.544Z,1.00
2019-02-24T08:37:34.982Z,1.07
2019-02-24T08:38:40.356Z,1.10
2019-02-24T08:39:43.752Z,1.11
2019-02-24T08:40:47.214Z,1.15
2019-02-24T08:41:50.634Z,1.16
2019-02-24T08:42:54.067Z,1.17
2019-02-24T08:43:57.564Z,1.18
2019-02-24T08:45:01.053Z,1.19
2019-02-24T08:46:04.632Z,1.25
2019-02-24T08:47:08.062Z,1.24
2019-02-24T08:48:11.558Z,1.23
2019-02-24T08:49:14.980Z,1.20
2019-02-24T08:50:18.602Z,1.04
2019-02-24T08:51:23.358Z,1.08
2019-02-24T08:52:26.876Z,1.17
2019-02-24T08:53:30.322Z,1.23
2019-02-24T08:54:33.814Z,1.32
2019-02-24T08:55:37.240Z,1.41
2019-02-24T08:56:40.697Z,1.44
2019-02-24T08:57:44.133Z,1.43
2019-02-24T08:58:47.563Z,1.45
2019-02-24T08:59:51.067Z,1.48
2019-02-24T09:00:54.660Z,1.50
2019-02-24T09:01:58.100Z,1.58
2019-02-24T09:03:01.561Z,1.65
2019-02-24T09:04:05.079Z,1.69
2019-02-24T09:05:08.642Z,1.67
2019-02-24T09:06:12.140Z,1.63
2019-02-24T09:07:15.595Z,1.65
2019-02-24T09:08:19.053Z,1.67
2019-02-24T09:09:22.504Z,1.70
2019-02-24T09:10:26.066Z,1.81
2019-02-24T09:11:29.498Z,1.84
2019-02-24T09:12:32.941Z,1.95
2019-02-24T09:13:36.462Z,2.04
2019-02-24T09:14:39.908Z,2.11
2019-02-24T09:15:43.330Z,2.16
2019-02-24T09:16:46.808Z,2.13
2019-02-24T09:17:50.255Z,2.14
2019-02-24T09:18:53.782Z,2.14
2019-02-24T09:19:57.279Z,2.19
2019-02-24T09:21:00.742Z,2.24
2019-02-24T09:22:04.135Z,2.28
2019-02-24T09:23:07.579Z,2.36
2019-02-24T09:24:11.011Z,2.42
2019-02-24T09:25:14.625Z,2.46
2019-02-24T09:26:18.627Z,2.53
2019-02-24T09:27:22.185Z,2.59
2019-02-24T09:28:25.706Z,2.67
2019-02-24T09:29:29.146Z,2.70
2019-02-24T09:30:32.610Z,2.78
2019-02-24T09:31:36.114Z,2.86
2019-02-24T09:32:39.628Z,2.92
2019-02-24T09:33:43.087Z,2.96
2019-02-24T09:34:46.672Z,3.03
2019-02-24T09:35:51.711Z,3.04
2019-02-24T09:36:55.346Z,3.11
2019-02-24T09:37:58.778Z,3.18
2019-02-24T09:39:02.506Z,3.22
2019-02-24T09:40:10.740Z,3.23
2019-02-24T09:41:14.174Z,3.24
2019-02-24T09:42:17.743Z,3.34
2019-02-24T09:43:21.262Z,3.38
2019-02-24T09:44:24.776Z,3.46
2019-02-24T09:45:28.299Z,3.52
2019-02-24T09:46:31.884Z,3.52
2019-02-24T09:47:35.471Z,3.52
2019-02-24T09:48:38.976Z,3.49
2019-02-24T09:49:42.420Z,3.49
2019-02-24T09:50:45.957Z,3.53
2019-02-24T09:51:49.389Z,3.59
2019-02-24T09:52:52.823Z,3.64
2019-02-24T09:53:56.276Z,3.66
2019-02-24T09:54:59.809Z,3.72
2019-02-24T09:56:03.348Z,3.72
2019-02-24T09:57:06.780Z,3.83
2019-02-24T09:58:10.328Z,3.93
2019-02-24T09:59:13.757Z,4.03
2019-02-24T10:00:17.593Z,4.04
2019-02-24T10:01:21.098Z,4.14
2019-02-24T10:02:24.534Z,4.23
2019-02-24T10:03:28.043Z,4.31
2019-02-24T10:04:31.483Z,4.36
2019-02-24T10:05:34.924Z,4.42
2019-02-24T10:06:38.456Z,4.42
2019-02-24T10:07:42.029Z,4.42
2019-02-24T10:08:45.522Z,4.39
2019-02-24T10:09:48.945Z,4.43
2019-02-24T10:10:52.420Z,4.46
2019-02-24T10:11:55.864Z,4.49
2019-02-24T10:12:59.271Z,4.51
2019-02-24T10:14:02.706Z,4.48
2019-02-24T10:15:08.690Z,4.48
2019-02-24T10:16:12.148Z,4.47
2019-02-24T10:17:15.574Z,4.54
2019-02-24T10:18:18.995Z,4.63
2019-02-24T10:19:22.425Z,4.74
2019-02-24T10:20:25.858Z,4.79
2019-02-24T10:21:29.306Z,4.88
2019-02-24T10:22:32.830Z,4.94
2019-02-24T10:23:36.268Z,5.02
2019-02-24T10:24:39.766Z,5.09
2019-02-24T10:25:43.205Z,5.13
2019-02-24T10:26:46.674Z,5.22
2019-02-24T10:27:50.109Z,5.33
2019-02-24T10:28:53.537Z,5.41
2019-02-24T10:29:56.965Z,5.46
2019-02-24T10:31:01.585Z,5.45
2019-02-24T10:32:05.102Z,5.43
2019-02-24T10:33:08.577Z,5.43
2019-02-24T10:34:11.980Z,5.48
2019-02-24T10:35:15.416Z,5.46
2019-02-24T10:36:18.848Z,5.43
2019-02-24T10:37:22.305Z,5.47
2019-02-24T10:38:25.829Z,5.51
2019-02-24T10:39:29.971Z,5.55
2019-02-24T10:40:33.441Z,5.61
2019-02-24T10:41:36.895Z,5.61
2019-02-24T10:42:40.354Z,5.58
2019-02-24T10:43:43.855Z,5.59
2019-02-24T10:44:47.299Z,5.62
2019-02-24T10:45:50.814Z,5.63
2019-02-24T10:46:54.244Z,5.72
2019-02-24T10:47:57.700Z,5.76
2019-02-24T10:49:03.657Z,5.83
2019-02-24T10:50:09.662Z,5.84
2019-02-24T10:51:13.095Z,5.83
2019-02-24T10:52:16.618Z,5.83
2019-02-24T10:53:20.070Z,5.88
2019-02-24T10:54:23.581Z,5.89
2019-02-24T10:55:27.004Z,5.88
2019-02-24T10:56:30.450Z,5.87
2019-02-24T10:57:33.880Z,5.84
2019-02-24T10:58:37.403Z,5.79
2019-02-24T10:59:40.858Z,5.73
2019-02-24T11:00:44.375Z,5.69
2019-02-24T11:01:47.872Z,5.72
2019-02-24T11:02:51.363Z,5.71
2019-02-24T11:03:54.876Z,5.77
2019-02-24T11:04:58.318Z,5.83
2019-02-24T11:06:01.762Z,5.84
2019-02-24T11:07:05.293Z,5.90
2019-02-24T11:08:08.708Z,5.92
2019-02-24T11:09:12.222Z,5.96
2019-02-24T11:10:15.898Z,5.97
2019-02-24T11:11:19.626Z,6.01
2019-02-24T11:12:23.028Z,6.05
2019-02-24T11:13:26.442Z,6.07
2019-02-24T11:14:29.898Z,6.04
2019-02-24T11:15:33.341Z,6.00
2019-02-24T11:16:36.848Z,6.02
2019-02-24T11:17:40.282Z,6.05
2019-02-24T11:18:43.701Z,6.13
2019-02-24T11:19:47.288Z,6.18
2019-02-24T11:20:50.729Z,6.21
2019-02-24T11:21:54.228Z,6.19
2019-02-24T11:22:57.741Z,6.18
2019-02-24T11:24:01.239Z,6.21
2019-02-24T11:25:06.167Z,6.21
2019-02-24T11:26:09.662Z,6.22
2019-02-24T11:27:13.188Z,6.29
2019-02-24T11:28:16.609Z,6.25
2019-02-24T11:29:20.126Z,6.19
2019-02-24T11:30:23.663Z,6.21
2019-02-24T11:31:27.114Z,6.23
2019-02-24T11:32:30.627Z,6.25
2019-02-24T11:33:34.180Z,6.28
2019-02-24T11:34:37.627Z,6.25
2019-02-24T11:35:41.204Z,6.30
2019-02-24T11:36:44.612Z,6.34
2019-02-24T11:37:48.040Z,6.39
2019-02-24T11:38:51.547Z,6.46
2019-02-24T11:39:55.000Z,6.54
2019-02-24T11:40:58.531Z,6.60
2019-02-24T11:42:01.951Z,6.53
2019-02-24T11:43:05.481Z,6.52
2019-02-24T11:44:08.973Z,6.50
2019-02-24T11:45:12.461Z,6.53
2019-02-24T11:46:15.907Z,6.47
2019-02-24T11:47:19.358Z,6.52
2019-02-24T11:48:22.782Z,6.57
2019-02-24T11:49:26.207Z,6.65
2019-02-24T11:50:29.637Z,6.67
2019-02-24T11:51:33.119Z,6.70
2019-02-24T11:52:36.625Z,6.71
2019-02-24T11:53:40.048Z,6.68
2019-02-24T11:54:43.483Z,6.65
2019-02-24T11:55:48.841Z,6.66
2019-02-24T11:56:52.218Z,6.72
2019-02-24T11:57:55.667Z,6.84
2019-02-24T11:58:59.099Z,6.95
2019-02-24T12:00:02.589Z,7.01
2019-02-24T12:01:06.184Z,7.04
2019-02-24T12:02:09.661Z,7.08
2019-02-24T12:03:13.114Z,7.09
2019-02-24T12:04:16.540Z,7.12
2019-02-24T12:05:19.958Z,7.18
2019-02-24T12:06:23.397Z,7.19
2019-02-24T12:07:26.881Z,7.26
2019-02-24T12:08:30.539Z,7.30
2019-02-24T12:09:33.985Z,7.27
2019-02-24T12:10:37.435Z,7.30
2019-02-24T12:11:40.864Z,7.31
2019-02-24T12:12:44.384Z,7.27
2019-02-24T12:13:47.810Z,7.27
2019-02-24T12:14:51.235Z,7.25
2019-02-24T12:15:54.927Z,7.16
2019-02-24T12:16:58.445Z,7.12
2019-02-24T12:18:01.894Z,7.05
2019-02-24T12:19:05.308Z,7.01
2019-02-24T12:20:12.541Z,6.99
2019-02-24T12:21:15.973Z,6.94
2019-02-24T12:22:19.391Z,6.85
2019-02-24T12:23:22.835Z,6.85
2019-02-24T12:24:26.273Z,6.87
2019-02-24T12:25:29.826Z,6.86
2019-02-24T12:26:35.146Z,6.88
2019-02-24T12:27:38.556Z,6.84
2019-02-24T12:28:41.992Z,6.80
2019-02-24T12:29:45.448Z,6.84
2019-02-24T12:30:48.930Z,6.80
2019-02-24T12:31:56.500Z,6.81
2019-02-24T12:32:57.667Z,6.80
2019-02-24T12:34:01.092Z,6.85
2019-02-24T12:35:05.263Z,6.88
2019-02-24T12:36:08.735Z,6.89
2019-02-24T12:37:12.214Z,6.89
2019-02-24T12:38:15.779Z,6.86
2019-02-24T12:39:19.240Z,6.86
2019-02-24T12:40:22.810Z,6.84
2019-02-24T12:41:26.242Z,6.85
2019-02-24T12:42:29.683Z,6.86
2019-02-24T12:43:33.206Z,6.81
2019-02-24T12:44:36.643Z,6.82
2019-02-24T12:45:40.061Z,6.84
2019-02-24T12:46:43.496Z,6.78
2019-02-24T12:47:46.910Z,6.77
2019-02-24T12:48:50.368Z,6.77
2019-02-24T12:50:02.723Z,6.83
2019-02-24T12:50:59.016Z,6.88
2019-02-24T12:52:02.517Z,6.92
2019-02-24T12:53:06.417Z,6.98
2019-02-24T12:54:09.865Z,6.99
2019-02-24T12:55:13.401Z,6.96
2019-02-24T12:56:16.909Z,6.95
2019-02-24T12:57:20.331Z,6.79
2019-02-24T12:58:23.761Z,6.78
2019-02-24T12:59:27.343Z,6.76
2019-02-24T13:00:30.841Z,6.76
2019-02-24T13:01:34.279Z,6.78
2019-02-24T13:02:37.781Z,6.77
2019-02-24T13:03:41.217Z,6.75
2019-02-24T13:04:44.661Z,6.73
2019-02-24T13:05:48.118Z,6.75
2019-02-24T13:06:51.551Z,6.81
2019-02-24T13:07:55.088Z,6.80
2019-02-24T13:08:58.536Z,6.80
2019-02-24T13:10:02.066Z,6.80
2019-02-24T13:11:05.586Z,6.83
2019-02-24T13:12:09.099Z,6.82
2019-02-24T13:13:12.602Z,6.81
2019-02-24T13:14:16.121Z,6.83
2019-02-24T13:15:19.571Z,6.81
2019-02-24T13:16:23.181Z,6.79
2019-02-24T13:17:26.744Z,6.75
2019-02-24T13:18:30.187Z,6.75
2019-02-24T13:19:33.685Z,6.77
2019-02-24T13:20:37.947Z,6.77
2019-02-24T13:21:41.889Z,6.74
2019-02-24T13:22:45.434Z,6.74
2019-02-24T13:23:49.096Z,6.68
2019-02-24T13:24:52.765Z,6.71
2019-02-24T13:25:56.341Z,6.72
2019-02-24T13:26:59.831Z,6.75
2019-02-24T13:28:03.329Z,6.73
2019-02-24T13:29:06.776Z,6.73
2019-02-24T13:30:12.243Z,6.79
2019-02-24T13:31:15.752Z,6.80
2019-02-24T13:32:19.189Z,6.82
2019-02-24T13:33:22.685Z,6.80
2019-02-24T13:34:26.111Z,6.84
2019-02-24T13:35:29.696Z,6.89
2019-02-24T13:36:33.210Z,6.91
2019-02-24T13:37:36.649Z,6.87
2019-02-24T13:38:40.224Z,6.88
2019-02-24T13:39:43.650Z,6.87
2019-02-24T13:40:47.069Z,6.89
2019-02-24T13:41:50.521Z,6.87
2019-02-24T13:42:54.059Z,6.95
2019-02-24T13:43:57.509Z,6.94
2019-02-24T13:45:00.938Z,6.91
2019-02-24T13:46:04.457Z,6.90
2019-02-24T13:47:08.063Z,6.92
2019-02-24T13:48:11.584Z,6.96
2019-02-24T13:49:15.023Z,7.02
2019-02-24T13:50:18.745Z,7.06
2019-02-24T13:51:22.248Z,7.09
2019-02-24T13:52:25.966Z,7.10
2019-02-24T13:53:29.714Z,7.12
2019-02-24T13:54:33.306Z,7.18
2019-02-24T13:55:36.844Z,7.14
2019-02-24T13:56:40.282Z,7.12